Time;durP1;ratioP1;P1;durP2;ratioP2;P2;SDS_P1;SDS_P2;PMS_P1;PMS_P2;Temp;Humidity;BMP_temperature;BMP_pressure;BME280_temperature;BME280_humidity;BME280_pressure;Samples;Min_cycle;Max_cycle;Signal;HPM_P1;HPM_P2
2022/07/22 00:01:51;;;;;;;8.23;7.63;;;;;;;20.11;80.16;100657.88;5070629;28;20196;-73
2022/07/22 00:04:18;;;;;;;8.07;7.53;;;;;;;20.10;79.69;100656.19;5069897;28;20197;-73
2022/07/22 00:06:46;;;;;;;8.53;7.83;;;;;;;20.11;79.36;100667.63;5065561;28;20201;-73
2022/07/22 00:09:12;;;;;;;7.80;7.30;;;;;;;20.07;79.67;100663.44;5062222;28;20229;-73
2022/07/22 00:11:39;;;;;;;7.70;7.30;;;;;;;20.06;80.12;100653.78;5055104;28;20207;-73
2022/07/22 00:14:05;;;;;;;9.00;8.40;;;;;;;19.88;80.18;100635.31;5055131;28;20221;-73
2022/07/22 00:16:32;;;;;;;9.27;8.50;;;;;;;19.87;80.61;100636.25;5054770;28;20212;-73
2022/07/22 00:18:58;;;;;;;9.30;8.70;;;;;;;19.81;80.93;100618.03;5055211;28;20271;-73
2022/07/22 00:21:25;;;;;;;10.80;8.40;;;;;;;19.86;80.45;100623.94;5054981;28;20757;-73
2022/07/22 00:23:53;;;;;;;9.07;8.57;;;;;;;19.82;80.95;100617.97;5064212;28;20205;-73
2022/07/22 00:26:19;;;;;;;8.30;7.80;;;;;;;19.79;80.83;100614.63;5074474;28;20197;-73
2022/07/22 00:28:46;;;;;;;8.57;8.07;;;;;;;19.70;81.37;100601.84;5074553;28;20274;-73
2022/07/22 00:31:12;;;;;;;8.87;8.37;;;;;;;19.69;81.33;100600.13;5074747;28;20205;-73
2022/07/22 00:33:38;;;;;;;8.77;8.23;;;;;;;19.74;81.16;100603.41;5074819;28;20265;-73
2022/07/22 00:36:06;;;;;;;8.87;8.17;;;;;;;19.74;81.49;100587.50;5074467;28;20209;-73
2022/07/22 00:38:32;;;;;;;9.67;9.13;;;;;;;19.68;81.46;100588.66;5074640;28;20231;-73
2022/07/22 00:41:00;;;;;;;9.63;9.03;;;;;;;19.70;81.78;100589.47;5074581;28;20212;-73
2022/07/22 00:43:27;;;;;;;10.23;9.63;;;;;;;19.72;81.38;100611.47;5074083;28;20208;-73
2022/07/22 00:45:53;;;;;;;10.17;9.47;;;;;;;19.73;81.22;100604.38;5074357;28;20211;-73
2022/07/22 00:48:20;;;;;;;11.00;10.20;;;;;;;19.70;81.72;100589.47;5074386;28;20258;-73
2022/07/22 00:50:46;;;;;;;10.70;9.90;;;;;;;19.72;81.97;100605.28;5074602;28;20212;-73
2022/07/22 00:53:13;;;;;;;10.83;10.13;;;;;;;19.74;81.85;100593.69;5074289;28;20278;-73
2022/07/22 00:55:39;;;;;;;12.07;11.23;;;;;;;19.71;82.15;100585.03;5073801;28;20228;-73
2022/07/22 00:58:07;;;;;;;11.77;11.00;;;;;;;19.65;81.75;100587.06;5074661;28;20209;-73
2022/07/22 01:00:33;;;;;;;11.63;10.93;;;;;;;19.61;82.22;100576.72;5074305;28;20216;-73
2022/07/22 01:03:00;;;;;;;11.73;10.83;;;;;;;19.64;82.21;100584.47;5074301;28;20205;-73
2022/07/22 01:05:26;;;;;;;11.47;10.57;;;;;;;19.63;81.73;100594.22;5073975;28;20201;-73
2022/07/22 01:07:53;;;;;;;10.87;10.17;;;;;;;19.67;81.89;100591.44;5074138;28;20236;-73
2022/07/22 01:10:20;;;;;;;10.57;9.77;;;;;;;19.71;81.35;100611.50;5073830;28;20229;-73
2022/07/22 01:12:46;;;;;;;11.83;11.07;;;;;;;19.56;81.77;100608.75;5074151;28;20205;-73
2022/07/22 01:15:14;;;;;;;11.77;11.07;;;;;;;19.60;81.96;100597.06;5073710;28;20228;-73
2022/07/22 01:17:40;;;;;;;10.70;10.00;;;;;;;19.60;81.84;100594.41;5074049;28;20262;-73
2022/07/22 01:20:09;;;;;;;10.70;9.90;;;;;;;19.57;81.67;100599.84;5073738;28;20569;-73
2022/07/22 01:22:36;;;;;;;11.23;10.43;;;;;;;19.50;81.99;100595.81;5073872;28;20634;-73
2022/07/22 01:25:02;;;;;;;10.63;9.90;;;;;;;19.45;82.45;100593.44;5073277;28;20212;-73
2022/07/22 01:27:29;;;;;;;11.70;11.00;;;;;;;19.41;82.87;100568.06;5073767;28;20209;-73
2022/07/22 01:29:55;;;;;;;10.87;10.17;;;;;;;19.44;82.69;100567.03;5073529;28;20232;-73
2022/07/22 01:32:22;;;;;;;11.73;10.93;;;;;;;19.40;83.68;100544.31;5073777;28;20212;-72
2022/07/22 01:34:49;;;;;;;10.93;10.23;;;;;;;19.41;84.27;100533.63;5073290;28;20766;-73
2022/07/22 01:37:16;;;;;;;10.87;10.07;;;;;;;19.46;84.40;100528.09;5073632;28;20205;-73
2022/07/22 01:39:43;;;;;;;10.80;10.10;;;;;;;19.11;86.51;100464.72;5073625;28;20282;-73
2022/07/22 01:42:09;;;;;;;11.67;10.73;;;;;;;19.13;86.93;100464.63;5073598;28;20254;-73
2022/07/22 01:44:36;;;;;;;11.43;10.63;;;;;;;19.11;87.34;100455.88;5072981;28;20212;-73
2022/07/22 01:47:02;;;;;;;10.93;10.23;;;;;;;19.22;87.33;100451.72;5073045;28;20216;-73
2022/07/22 01:49:28;;;;;;;12.03;11.13;;;;;;;19.12;88.69;100428.50;5073191;28;20225;-74
2022/07/22 01:51:55;;;;;;;11.50;10.70;;;;;;;19.29;87.66;100443.47;5073239;28;20209;-73
2022/07/22 01:54:23;;;;;;;12.30;11.50;;;;;;;19.33;88.29;100452.94;5072873;28;20225;-73
2022/07/22 01:56:49;;;;;;;11.23;10.53;;;;;;;19.40;88.41;100455.16;5073046;28;20258;-73
2022/07/22 01:59:16;;;;;;;12.77;11.63;;;;;;;19.24;89.32;100441.91;5072868;28;20228;-73
2022/07/22 02:01:42;;;;;;;11.87;11.07;;;;;;;19.33;89.42;100445.00;5073078;28;20209;-73
2022/07/22 02:04:09;;;;;;;13.17;12.07;;;;;;;19.26;90.88;100412.72;5072953;28;20259;-73
2022/07/22 02:06:35;;;;;;;13.67;12.77;;;;;;;19.18;91.97;100394.59;5072968;28;20338;-73
2022/07/22 02:09:01;;;;;;;12.37;11.57;;;;;;;19.25;92.06;100387.22;5072956;28;20220;-73
2022/07/22 02:11:29;;;;;;;12.83;11.93;;;;;;;19.34;91.46;100405.19;5072874;28;20205;-73
2022/07/22 02:13:56;;;;;;;13.63;12.73;;;;;;;19.35;91.30;100409.56;5072571;28;20209;-73
2022/07/22 02:16:23;;;;;;;13.20;12.30;;;;;;;19.43;91.76;100409.13;5072339;28;20723;-73
2022/07/22 02:18:49;;;;;;;14.50;13.37;;;;;;;19.39;91.49;100421.69;5072566;28;20233;-73
2022/07/22 02:21:15;;;;;;;14.40;13.17;;;;;;;19.41;91.87;100406.56;5072626;28;20705;-73
2022/07/22 02:23:42;;;;;;;15.37;14.17;;;;;;;19.44;91.98;100409.06;5072823;28;20213;-73
2022/07/22 02:26:08;;;;;;;15.03;13.83;;;;;;;19.45;91.24;100431.09;5072161;28;20717;-73
2022/07/22 02:28:37;;;;;;;14.03;13.07;;;;;;;19.52;91.41;100423.63;5072410;28;20714;-73
2022/07/22 02:31:03;;;;;;;14.67;13.57;;;;;;;19.48;91.91;100428.25;5072417;28;20208;-73
2022/07/22 02:33:30;;;;;;;15.60;14.50;;;;;;;19.47;92.50;100423.06;5072415;28;20205;-73
2022/07/22 02:35:56;;;;;;;14.30;13.30;;;;;;;19.44;92.06;100434.66;5072119;28;20258;-73
2022/07/22 02:38:23;;;;;;;13.70;12.63;;;;;;;19.35;93.03;100427.25;5072515;28;20311;-74
2022/07/22 02:40:49;;;;;;;15.90;14.40;;;;;;;19.01;95.63;100400.00;5072366;28;20204;-74
2022/07/22 02:43:16;;;;;;;15.67;14.33;;;;;;;18.84;97.06;100371.81;5072106;28;20270;-73
2022/07/22 02:45:44;;;;;;;15.47;14.37;;;;;;;18.38;100.00;100324.88;5071919;28;20293;-73
2022/07/22 02:48:10;;;;;;;13.33;12.43;;;;;;;18.05;100.00;100311.66;5072138;28;20293;-74
2022/07/22 02:50:37;;;;;;;13.17;12.07;;;;;;;17.47;100.00;100326.84;5072198;28;20215;-73
2022/07/22 02:53:04;;;;;;;12.60;11.43;;;;;;;17.60;100.00;100355.25;5072201;28;20684;-73
2022/07/22 02:55:30;;;;;;;13.63;12.33;;;;;;;17.70;100.00;100390.88;5071565;28;20216;-73
2022/07/22 02:57:57;;;;;;;10.50;9.67;;;;;;;17.50;100.00;100431.41;5071873;28;21010;-73
2022/07/22 03:00:23;;;;;;;10.33;9.53;;;;;;;17.44;100.00;100445.75;5072035;28;20232;-72
2022/07/22 03:02:51;;;;;;;10.47;9.67;;;;;;;17.36;100.00;100473.44;5072216;28;20248;-73
2022/07/22 03:05:18;;;;;;;9.03;8.23;;;;;;;17.20;100.00;100484.69;5071050;28;20212;-72
2022/07/22 03:07:44;;;;;;;9.23;8.20;;;;;;;17.33;100.00;100516.66;5071976;28;20216;-72
2022/07/22 03:10:10;;;;;;;8.90;8.20;;;;;;;17.15;100.00;100531.53;5071700;28;20232;-72
2022/07/22 03:12:37;;;;;;;9.63;8.80;;;;;;;16.98;100.00;100550.72;5072056;28;20235;-73
2022/07/22 03:15:04;;;;;;;9.93;9.13;;;;;;;17.05;100.00;100560.09;5071563;28;20232;-72
2022/07/22 03:17:34;;;;;;;11.50;10.60;;;;;;;16.99;100.00;100577.97;5071770;28;20212;-72
2022/07/22 03:20:03;;;;;;;10.37;9.47;;;;;;;17.15;100.00;100596.63;5071810;28;20375;-72
2022/07/22 03:22:30;;;;;;;9.87;9.07;;;;;;;17.03;100.00;100611.22;5071826;28;20215;-73
2022/07/22 03:24:56;;;;;;;8.20;7.43;;;;;;;16.95;100.00;100624.72;5071231;28;20665;-72
2022/07/22 03:27:23;;;;;;;8.13;7.43;;;;;;;17.03;100.00;100634.94;5071850;28;20209;-72
2022/07/22 03:29:49;;;;;;;8.83;7.07;;;;;;;17.09;100.00;100647.00;5071395;28;20237;-72
2022/07/22 03:32:16;;;;;;;6.10;5.60;;;;;;;17.24;100.00;100655.13;5071864;28;20284;-72
2022/07/22 03:34:42;;;;;;;6.30;5.80;;;;;;;17.17;100.00;100660.72;5071508;28;20763;-72
2022/07/22 03:37:10;;;;;;;5.67;5.17;;;;;;;17.16;100.00;100669.56;5071596;28;20213;-72
2022/07/22 03:39:37;;;;;;;7.13;6.53;;;;;;;16.91;100.00;100665.31;5071468;28;20313;-72
2022/07/22 03:42:03;;;;;;;7.13;6.57;;;;;;;16.92;100.00;100666.16;5071770;28;20199;-72
2022/07/22 03:44:30;;;;;;;8.57;7.87;;;;;;;16.68;100.00;100656.53;5071025;28;20202;-72
2022/07/22 03:46:56;;;;;;;8.23;7.60;;;;;;;16.65;100.00;100648.75;5071457;28;20219;-72
2022/07/22 03:49:23;;;;;;;9.17;8.20;;;;;;;16.55;100.00;100657.97;5071368;28;20228;-72
2022/07/22 03:51:49;;;;;;;9.93;9.03;;;;;;;16.51;100.00;100656.38;5071820;28;20241;-72
2022/07/22 03:54:17;;;;;;;11.30;9.23;;;;;;;16.54;100.00;100665.94;5071708;28;20249;-72
2022/07/22 03:56:43;;;;;;;9.47;8.40;;;;;;;16.54;100.00;100671.19;5071096;28;20223;-72
2022/07/22 03:59:10;;;;;;;10.93;9.93;;;;;;;16.51;100.00;100680.09;5071167;28;20281;-72
2022/07/22 04:01:36;;;;;;;10.77;9.77;;;;;;;16.59;100.00;100680.66;5071467;28;20206;-72
2022/07/22 04:04:03;;;;;;;10.53;9.63;;;;;;;16.67;100.00;100691.72;5071313;28;20601;-72
2022/07/22 04:06:29;;;;;;;10.73;9.93;;;;;;;16.57;100.00;100695.66;5071313;28;20204;-72
2022/07/22 04:08:55;;;;;;;10.40;9.50;;;;;;;16.48;100.00;100694.22;5071448;28;20285;-72
2022/07/22 04:11:23;;;;;;;9.83;9.03;;;;;;;16.55;100.00;100699.25;5071324;28;20740;-72
2022/07/22 04:13:50;;;;;;;9.73;8.93;;;;;;;16.58;100.00;100709.69;5071315;28;20280;-72
2022/07/22 04:16:16;;;;;;;9.57;8.80;;;;;;;16.52;100.00;100710.78;5072251;28;20636;-71
2022/07/22 04:18:43;;;;;;;9.37;8.47;;;;;;;16.45;100.00;100702.28;5074770;28;20713;-72
2022/07/22 04:21:09;;;;;;;8.60;7.80;;;;;;;16.48;100.00;100709.19;5074918;28;20681;-72
2022/07/22 04:23:36;;;;;;;7.50;6.97;;;;;;;16.45;100.00;100712.81;5074959;28;20268;-72
2022/07/22 04:26:02;;;;;;;7.67;7.13;;;;;;;16.39;100.00;100715.69;5074616;28;20639;-72
2022/07/22 04:28:30;;;;;;;7.77;7.17;;;;;;;16.41;100.00;100716.47;5074810;28;20293;-71
2022/07/22 04:30:57;;;;;;;8.07;7.47;;;;;;;16.46;100.00;100724.19;5074667;28;20215;-72
2022/07/22 04:33:23;;;;;;;7.57;6.97;;;;;;;16.63;100.00;100734.94;5074794;28;20265;-72
2022/07/22 04:35:49;;;;;;;7.17;6.67;;;;;;;16.58;100.00;100733.41;5074555;28;20241;-72
2022/07/22 04:38:16;;;;;;;8.17;7.60;;;;;;;16.34;100.00;100735.22;5074495;28;20211;-72
2022/07/22 04:40:43;;;;;;;8.33;7.43;;;;;;;16.26;100.00;100735.50;5074849;28;20256;-72
2022/07/22 04:43:09;;;;;;;8.27;7.43;;;;;;;16.44;100.00;100733.94;5074345;28;20208;-71
2022/07/22 04:45:37;;;;;;;8.00;7.40;;;;;;;16.23;100.00;100743.50;5074203;28;20208;-72
2022/07/22 04:48:04;;;;;;;8.20;7.60;;;;;;;16.30;100.00;100742.38;5074389;28;20215;-73
2022/07/22 04:50:31;;;;;;;7.67;7.17;;;;;;;16.35;100.00;100747.47;5074440;28;20673;-73
2022/07/22 04:52:57;;;;;;;7.30;6.77;;;;;;;16.59;100.00;100741.25;5074450;28;20203;-73
2022/07/22 04:55:24;;;;;;;7.90;7.20;;;;;;;16.57;100.00;100758.91;5074099;28;20277;-72
2022/07/22 04:57:50;;;;;;;6.03;5.57;;;;;;;16.63;100.00;100771.84;5074180;28;20224;-72
2022/07/22 05:00:17;;;;;;;7.23;6.73;;;;;;;16.65;100.00;100785.81;5074177;28;20297;-73
2022/07/22 05:02:45;;;;;;;6.63;6.00;;;;;;;16.56;100.00;100799.34;5074422;28;20241;-73
2022/07/22 05:05:12;;;;;;;6.73;6.13;;;;;;;16.45;100.00;100793.63;5074122;28;20211;-72
2022/07/22 05:07:38;;;;;;;7.03;6.33;;;;;;;16.53;100.00;100796.84;5074219;28;20208;-73
2022/07/22 05:10:06;;;;;;;6.10;5.60;;;;;;;16.48;100.00;100794.38;5074126;28;20284;-72
2022/07/22 05:12:32;;;;;;;5.73;5.33;;;;;;;16.38;100.00;100800.06;5073940;28;20252;-73
2022/07/22 05:14:59;;;;;;;6.50;5.90;;;;;;;16.22;100.00;100803.25;5073625;28;20211;-73
2022/07/22 05:17:25;;;;;;;7.73;6.47;;;;;;;16.16;100.00;100792.94;5074084;28;20211;-73
2022/07/22 05:19:53;;;;;;;6.07;5.60;;;;;;;16.39;100.00;100799.13;5074116;28;20227;-72
2022/07/22 05:22:19;;;;;;;6.43;5.83;;;;;;;16.45;100.00;100810.31;5073944;28;20208;-73
2022/07/22 05:24:46;;;;;;;6.50;6.00;;;;;;;16.36;100.00;100815.91;5073395;28;20208;-73
2022/07/22 05:27:12;;;;;;;6.07;5.57;;;;;;;16.45;100.00;100812.06;5072887;28;20225;-73
2022/07/22 05:29:39;;;;;;;6.10;5.70;;;;;;;16.46;100.00;100803.25;5073582;28;20232;-73
2022/07/22 05:32:06;;;;;;;6.13;5.73;;;;;;;16.41;100.00;100810.47;5073867;28;20235;-73
2022/07/22 05:34:32;;;;;;;6.03;5.57;;;;;;;16.45;100.00;100815.56;5073787;28;20257;-73
2022/07/22 05:37:00;;;;;;;5.50;5.10;;;;;;;16.30;100.00;100820.56;5073406;28;20231;-73
2022/07/22 05:39:26;;;;;;;5.87;5.37;;;;;;;16.36;100.00;100812.41;5073337;28;20239;-73
2022/07/22 05:41:53;;;;;;;7.30;4.67;;;;;;;16.21;100.00;100827.00;5073556;28;20205;-72
2022/07/22 05:44:19;;;;;;;5.33;4.93;;;;;;;16.28;100.00;100825.88;5072964;28;20257;-73
2022/07/22 05:46:46;;;;;;;5.00;4.60;;;;;;;16.23;100.00;100833.94;5073140;28;20356;-73
2022/07/22 05:49:12;;;;;;;5.00;4.70;;;;;;;16.26;100.00;100820.66;5073401;28;20231;-73
2022/07/22 05:51:39;;;;;;;6.83;4.47;;;;;;;16.43;100.00;100827.94;5073267;28;20210;-73
2022/07/22 05:54:07;;;;;;;4.90;4.50;;;;;;;16.46;100.00;100838.38;5073343;28;20209;-73
2022/07/22 05:56:33;;;;;;;4.77;4.40;;;;;;;16.38;100.00;100843.06;5072045;28;20387;-73
2022/07/22 05:59:00;;;;;;;3.77;3.47;;;;;;;16.38;99.07;100852.75;5072824;28;20223;-73
2022/07/22 06:01:26;;;;;;;3.93;3.53;;;;;;;16.51;97.03;100903.22;5072818;28;20676;-73
2022/07/22 06:03:53;;;;;;;3.60;3.30;;;;;;;16.57;96.18;100930.22;5073067;28;20210;-73
2022/07/22 06:06:19;;;;;;;2.63;2.43;;;;;;;16.55;95.41;100924.16;5072616;28;20208;-73
2022/07/22 06:08:46;;;;;;;2.80;2.60;;;;;;;16.72;95.21;100941.13;5072967;28;20280;-73
2022/07/22 06:11:14;;;;;;;3.60;2.30;;;;;;;16.61;95.33;100945.00;5072969;28;20249;-73
2022/07/22 06:13:40;;;;;;;4.00;2.90;;;;;;;16.47;95.65;100940.22;5072780;28;20677;-73
2022/07/22 06:16:07;;;;;;;4.57;2.73;;;;;;;16.36;96.17;100925.72;5072282;28;20227;-73
2022/07/22 06:18:33;;;;;;;4.10;2.57;;;;;;;16.25;96.04;100923.44;5072616;28;20226;-73
2022/07/22 06:21:00;;;;;;;2.77;2.57;;;;;;;16.34;96.77;100902.03;5072079;28;20540;-73
2022/07/22 06:23:26;;;;;;;2.90;2.70;;;;;;;16.45;95.62;100922.72;5072551;28;20204;-73
2022/07/22 06:25:52;;;;;;;2.60;2.40;;;;;;;16.33;95.89;100913.47;5071801;28;20248;-73
2022/07/22 06:28:20;;;;;;;2.47;2.23;;;;;;;16.31;95.27;100931.13;5071892;28;20203;-73
2022/07/22 06:30:47;;;;;;;3.47;3.03;;;;;;;16.31;96.32;100920.59;5071766;28;20260;-73
2022/07/22 06:33:13;;;;;;;3.50;2.33;;;;;;;16.18;95.36;100932.47;5071794;28;20204;-73
2022/07/22 06:35:41;;;;;;;4.10;2.53;;;;;;;16.23;96.28;100912.09;5071937;28;20199;-73
2022/07/22 06:38:07;;;;;;;4.20;2.70;;;;;;;16.13;96.31;100902.78;5071989;28;20199;-73
2022/07/22 06:40:34;;;;;;;3.57;2.50;;;;;;;16.14;96.94;100894.00;5069065;28;20206;-73
2022/07/22 06:43:00;;;;;;;2.50;2.30;;;;;;;16.44;96.16;100902.59;5071727;28;20692;-73
2022/07/22 06:45:28;;;;;;;3.47;2.53;;;;;;;16.61;94.89;100923.94;5071544;28;20562;-73
2022/07/22 06:47:55;;;;;;;2.53;2.33;;;;;;;16.51;95.64;100925.19;5069242;28;20771;-73
2022/07/22 06:50:21;;;;;;;4.37;3.20;;;;;;;16.55;96.10;100912.72;5071825;28;20220;-73
2022/07/22 06:52:48;;;;;;;3.93;3.07;;;;;;;16.60;96.42;100905.53;5071549;28;20543;-73
2022/07/22 06:55:15;;;;;;;3.80;3.10;;;;;;;16.83;96.16;100905.56;5068818;28;20204;-73
2022/07/22 06:57:41;;;;;;;4.80;4.40;;;;;;;16.69;95.51;100923.66;5071621;28;20227;-74
2022/07/22 07:00:09;;;;;;;5.00;4.60;;;;;;;16.63;95.52;100923.84;5071314;28;20222;-73
2022/07/22 07:02:37;;;;;;;5.70;3.93;;;;;;;16.64;96.04;100909.75;5069055;28;20200;-73
2022/07/22 07:05:04;;;;;;;5.97;4.13;;;;;;;16.57;96.36;100910.91;5071242;28;20662;-73
2022/07/22 07:07:31;;;;;;;3.60;3.40;;;;;;;16.43;97.17;100898.22;5071410;28;20241;-73
2022/07/22 07:09:57;;;;;;;5.80;3.57;;;;;;;16.41;97.67;100882.47;5071426;28;20226;-73
2022/07/22 07:12:23;;;;;;;4.83;3.43;;;;;;;16.45;98.39;100860.38;5071605;28;20200;-74
2022/07/22 07:14:50;;;;;;;3.83;3.03;;;;;;;16.55;97.69;100871.44;5071049;28;20199;-73
2022/07/22 07:17:16;;;;;;;4.10;2.90;;;;;;;16.55;98.12;100862.66;5071423;28;20224;-73
2022/07/22 07:19:44;;;;;;;3.73;3.43;;;;;;;16.44;97.81;100868.31;5071392;28;20305;-73
2022/07/22 07:22:10;;;;;;;3.87;3.50;;;;;;;16.55;96.94;100878.47;5071757;28;20215;-73
2022/07/22 07:24:37;;;;;;;4.70;3.53;;;;;;;16.74;96.95;100884.78;5071391;28;20257;-73
2022/07/22 07:27:04;;;;;;;4.07;3.50;;;;;;;16.66;96.44;100900.03;5071005;28;20547;-73
2022/07/22 07:29:30;;;;;;;4.60;4.13;;;;;;;16.45;96.70;100891.09;5071609;28;20223;-73
2022/07/22 07:31:57;;;;;;;4.53;4.13;;;;;;;16.25;97.89;100878.66;5071568;28;20212;-73
2022/07/22 07:34:23;;;;;;;4.50;4.20;;;;;;;16.24;98.19;100864.63;5071734;28;20208;-73
2022/07/22 07:36:51;;;;;;;4.40;4.10;;;;;;;16.22;98.28;100858.56;5070831;28;20228;-73
2022/07/22 07:39:17;;;;;;;5.23;4.80;;;;;;;16.23;98.90;100852.38;5071274;28;20265;-73
2022/07/22 07:41:43;;;;;;;4.40;4.00;;;;;;;16.29;99.33;100843.38;5068210;28;20257;-73
2022/07/22 07:44:10;;;;;;;4.77;4.37;;;;;;;16.15;98.21;100856.19;5071795;28;20211;-73
2022/07/22 07:46:36;;;;;;;5.60;4.50;;;;;;;16.34;98.58;100857.25;5070744;28;20234;-73
2022/07/22 07:49:03;;;;;;;3.43;3.23;;;;;;;16.64;98.31;100854.41;5071964;28;20228;-73
2022/07/22 07:51:29;;;;;;;4.03;3.63;;;;;;;16.76;96.14;100895.28;5073870;28;20394;-73
2022/07/22 07:53:57;;;;;;;4.03;3.70;;;;;;;16.87;95.50;100919.50;5075633;28;20238;-73
2022/07/22 07:56:23;;;;;;;3.60;3.30;;;;;;;17.16;93.64;100949.19;5075064;28;20235;-72
2022/07/22 07:58:50;;;;;;;2.77;2.57;;;;;;;17.16;92.29;100992.25;5075347;28;20235;-73
2022/07/22 08:01:16;;;;;;;2.27;1.93;;;;;;;17.07;91.04;101030.38;5074851;28;20204;-73
2022/07/22 08:03:43;;;;;;;3.57;1.90;;;;;;;16.98;91.91;101008.75;5073908;28;20871;-72
2022/07/22 08:06:09;;;;;;;2.20;1.63;;;;;;;16.79;92.34;101004.13;5075004;28;20211;-72
2022/07/22 08:08:36;;;;;;;2.90;1.70;;;;;;;16.92;92.97;100983.47;5075111;28;20285;-72
2022/07/22 08:11:04;;;;;;;2.40;2.00;;;;;;;16.92;91.75;101003.72;5074755;28;20270;-71
2022/07/22 08:13:30;;;;;;;3.13;1.80;;;;;;;16.93;90.91;101021.28;5074922;28;20216;-72
2022/07/22 08:15:57;;;;;;;2.47;1.90;;;;;;;17.04;91.23;101017.28;5074425;28;20212;-72
2022/07/22 08:18:23;;;;;;;3.30;1.87;;;;;;;17.20;91.14;101027.28;5075001;28;20228;-72
2022/07/22 08:20:49;;;;;;;2.60;1.87;;;;;;;17.34;89.67;101051.38;5074878;28;20594;-72
2022/07/22 08:23:16;;;;;;;2.07;1.50;;;;;;;17.30;89.72;101062.13;5074117;28;20209;-71
2022/07/22 08:25:42;;;;;;;1.80;1.70;;;;;;;17.36;88.49;101090.91;5074137;28;20208;-72
2022/07/22 08:28:10;;;;;;;1.83;1.73;;;;;;;17.39;88.70;101082.91;5074370;28;20204;-71
2022/07/22 08:30:37;;;;;;;2.40;1.67;;;;;;;17.59;89.49;101059.25;5074523;28;20261;-71
2022/07/22 08:33:03;;;;;;;1.63;1.53;;;;;;;17.92;88.93;101066.81;5075092;28;20250;-72
2022/07/22 08:35:30;;;;;;;1.97;1.80;;;;;;;18.13;88.01;101086.22;5074639;28;20273;-72
2022/07/22 08:37:56;;;;;;;1.50;1.40;;;;;;;18.30;85.96;101127.84;5074580;28;20225;-72
2022/07/22 08:40:23;;;;;;;1.70;1.60;;;;;;;18.34;84.52;101155.00;5074362;28;20232;-72
2022/07/22 08:42:51;;;;;;;1.80;1.70;;;;;;;17.93;84.24;101208.53;5074764;28;20451;-72
2022/07/22 08:45:20;;;;;;;3.00;2.10;;;;;;;18.19;85.17;101180.25;5074038;28;20830;-72
2022/07/22 08:47:49;;;;;;;3.17;2.63;;;;;;;18.09;84.62;101190.31;5074152;28;20626;-72
2022/07/22 08:50:15;;;;;;;3.07;2.87;;;;;;;18.03;85.54;101162.34;5074341;28;20225;-72
2022/07/22 08:52:42;;;;;;;3.27;2.57;;;;;;;17.91;85.85;101148.75;5074267;28;20223;-72
2022/07/22 08:55:09;;;;;;;2.90;2.60;;;;;;;18.04;85.04;101150.00;5074168;28;20299;-72
2022/07/22 08:57:36;;;;;;;3.93;2.43;;;;;;;18.18;84.56;101173.25;5073913;28;20229;-70
2022/07/22 09:00:11;;;;;;;2.90;2.70;;;;;;;18.11;83.43;101206.09;5074039;28;20698;-71
2022/07/22 09:02:41;;;;;;;4.80;2.60;;;;;;;18.15;84.88;101168.94;5072766;28;20212;-71
2022/07/22 09:05:09;;;;;;;4.20;3.20;;;;;;;18.32;84.94;101149.78;5073898;28;20214;-71
2022/07/22 09:07:37;;;;;;;4.10;2.53;;;;;;;18.49;84.25;101170.25;5073775;28;20799;-71
2022/07/22 09:10:07;;;;;;;2.43;2.23;;;;;;;18.55;83.77;101182.34;5073874;28;20224;-71
2022/07/22 09:12:34;;;;;;;1.60;1.50;;;;;;;18.39;81.61;101234.97;5073990;28;20301;-72
2022/07/22 09:15:02;;;;;;;2.63;2.10;;;;;;;18.22;83.12;101220.63;5078115;28;20207;-71
2022/07/22 09:17:30;;;;;;;2.33;2.13;;;;;;;18.28;83.57;101189.63;5073394;28;20274;-71
2022/07/22 09:19:59;;;;;;;3.00;1.80;;;;;;;18.35;82.88;101201.66;5070466;28;20231;-72
2022/07/22 09:22:33;;;;;;;1.97;1.83;;;;;;;18.17;84.01;101177.66;5078040;28;20250;-74
2022/07/22 09:25:17;;;;;;;2.33;2.00;;;;;;;18.16;82.98;101183.88;5074103;28;20214;-71
2022/07/22 09:27:43;;;;;;;2.20;2.00;;;;;;;18.11;83.67;101179.69;5081415;28;21168;-70
2022/07/22 09:30:12;;;;;;;2.90;2.10;;;;;;;17.92;84.71;101142.53;5075579;28;20232;-70
2022/07/22 09:32:41;;;;;;;2.53;2.00;;;;;;;18.06;84.36;101142.88;5071813;28;21211;-70
2022/07/22 09:35:10;;;;;;;3.00;2.60;;;;;;;18.11;83.18;101172.63;5070580;28;20292;-70
2022/07/22 09:37:36;;;;;;;4.53;2.70;;;;;;;18.02;83.51;101173.84;5070290;28;20238;-70
2022/07/22 09:40:14;;;;;;;2.43;2.30;;;;;;;18.00;82.68;101178.31;5072474;28;20619;-71
2022/07/22 09:42:48;;;;;;;4.50;2.70;;;;;;;18.16;83.63;101161.88;5070363;28;20245;-71
2022/07/22 09:45:15;;;;;;;2.83;2.63;;;;;;;18.34;83.64;101166.44;5070226;28;20265;-70
2022/07/22 09:47:43;;;;;;;3.23;2.40;;;;;;;18.50;81.72;101202.84;5070192;28;20224;-71
2022/07/22 09:50:23;;;;;;;3.27;2.77;;;;;;;18.66;80.55;101240.97;5071077;28;20707;-71
2022/07/22 09:52:51;;;;;;;3.47;2.37;;;;;;;18.72;79.26;101280.41;5070330;28;20211;-71
2022/07/22 09:55:19;;;;;;;2.50;2.30;;;;;;;18.69;79.79;101282.28;5070057;28;20205;-71
2022/07/22 09:57:46;;;;;;;3.17;2.20;;;;;;;18.63;80.14;101271.06;5081956;28;20774;-71
2022/07/22 10:00:15;;;;;;;2.07;1.87;;;;;;;18.50;80.66;101250.44;5074848;28;20225;-71
2022/07/22 10:02:46;;;;;;;2.53;2.33;;;;;;;18.45;80.40;101245.31;5071620;28;20219;-71
2022/07/22 10:05:14;;;;;;;2.53;2.03;;;;;;;18.51;80.43;101253.00;5078172;28;20203;-71
2022/07/22 10:07:44;;;;;;;2.90;2.10;;;;;;;18.41;80.16;101260.44;5069976;28;20204;-71
2022/07/22 10:10:12;;;;;;;2.60;2.40;;;;;;;18.64;79.81;101254.25;5076704;28;20227;-71
2022/07/22 10:12:39;;;;;;;3.40;2.67;;;;;;;18.67;79.05;101279.69;5075336;28;20539;-70
2022/07/22 10:15:07;;;;;;;2.60;2.40;;;;;;;18.91;78.34;101287.63;5069024;28;20205;-71
2022/07/22 10:17:35;;;;;;;3.00;2.80;;;;;;;19.02;78.08;101306.59;5069470;28;20710;-71
2022/07/22 10:20:01;;;;;;;3.37;2.80;;;;;;;19.11;77.78;101321.22;5069524;28;20730;-71
2022/07/22 10:22:57;;;;;;;2.30;2.20;;;;;;;18.98;78.51;101311.13;5070169;28;20247;-70
2022/07/22 10:25:25;;;;;;;3.30;2.30;;;;;;;19.04;77.83;101307.38;5080865;28;20201;-71
2022/07/22 10:27:55;;;;;;;3.50;2.50;;;;;;;18.76;78.35;101295.22;5077542;28;20578;-71
2022/07/22 10:30:23;;;;;;;2.57;2.37;;;;;;;19.01;78.15;101289.84;5072771;28;20239;-71
2022/07/22 10:33:08;;;;;;;2.23;1.93;;;;;;;19.32;76.98;101317.69;5069019;28;20726;-71
2022/07/22 10:35:36;;;;;;;1.80;1.70;;;;;;;19.22;75.38;101367.50;5069070;28;20261;-71
2022/07/22 10:38:06;;;;;;;2.43;2.33;;;;;;;18.68;77.19;101341.41;5069414;28;20228;-71
2022/07/22 10:40:49;;;;;;;2.40;1.90;;;;;;;18.90;76.72;101331.75;5069204;28;20563;-71
2022/07/22 10:43:17;;;;;;;2.17;2.07;;;;;;;19.04;75.83;101341.78;5070665;28;20261;-71
2022/07/22 10:45:47;;;;;;;2.10;2.00;;;;;;;19.25;75.03;101358.59;5071597;28;20207;-71
2022/07/22 10:48:16;;;;;;;2.47;2.00;;;;;;;19.17;74.45;101373.94;5080355;28;20218;-71
2022/07/22 10:50:49;;;;;;;1.87;1.77;;;;;;;19.13;75.48;101349.38;5068959;28;20674;-70
2022/07/22 10:53:22;;;;;;;1.70;1.60;;;;;;;18.68;75.99;101344.91;5069219;28;20207;-70
2022/07/22 10:56:12;;;;;;;2.03;1.83;;;;;;;18.61;78.12;101278.19;5071804;28;20211;-70
2022/07/22 10:58:51;;;;;;;2.43;1.60;;;;;;;18.89;76.48;101290.34;5081556;28;20293;-71
2022/07/22 11:01:20;;;;;;;1.70;1.60;;;;;;;18.97;76.04;101320.00;5070076;28;20251;-71
2022/07/22 11:03:48;;;;;;;4.23;2.10;;;;;;;19.23;76.33;101300.41;5076025;28;20207;-71
2022/07/22 11:06:21;;;;;;;2.00;1.57;;;;;;;19.53;75.62;101313.31;5071964;28;20205;-71
2022/07/22 11:08:52;;;;;;;2.77;1.90;;;;;;;19.14;74.56;101368.75;5068474;28;20693;-70
2022/07/22 11:11:19;;;;;;;2.10;2.00;;;;;;;18.70;74.93;101366.88;5068762;28;20250;-70
2022/07/22 11:13:46;;;;;;;1.57;1.47;;;;;;;18.76;74.99;101364.00;5075190;28;20257;-70
2022/07/22 11:16:21;;;;;;;2.60;1.80;;;;;;;18.71;74.64;101350.09;5067988;28;21178;-70
2022/07/22 11:18:49;;;;;;;1.70;1.60;;;;;;;18.70;75.26;101337.78;5068239;28;20235;-70
2022/07/22 11:21:17;;;;;;;2.07;1.87;;;;;;;18.97;75.52;101330.59;5075509;28;20201;-71